Tropical Cyclones
[Index]
Main Index Home Page Stock Weather Photos Extreme Storms Discussion Storm News and Storm Chasing Reports Tropical Cyclones / Hurricanes / Typhoons Weather Data and Links Wild Fires / Bushfires Weather Observation Techniques Weather Picture Catalogue Tornado Pictures and Reports Stock Video Footage and DVDs for sale
Season 1967-1968 Tropical Cyclone 196768_03 Track Map
Season 1967-1968 Summaries: [BoM-AU] [JTWC-AU] [JTWC-SIO] [JTWC-SPAC] [JTWC-SH]
<<- Previous TC | BoM 1967-1968 Season | Next TC ->>

click for intensity scale information  Lat/long Grid: Show Hide

 Date Labels: Show Hide

Bureau of Meteorology Tropical Cyclone Data

Name: 196768_03
Number: 425 / 196768_03

09 Dec 1967 17:00 UTC to 12 Dec 1967 05:00 UTC

    date/time    lat    long    hPa   cat  kts
1967-12-09 17   24.9   154.5   1003                     
1967-12-09 20   25.4   155.2   1003                     
1967-12-09 23   26.0   155.8   1002                     
1967-12-10 02   26.2   156.0    999                     
1967-12-10 05   26.4   156.3    998                     
1967-12-10 08   26.6   156.4    997                     
1967-12-10 11   26.8   156.6    999                     
1967-12-10 14   27.1   156.8    999                     
1967-12-10 17   27.3   157.0   1000                     
1967-12-10 20   27.4   157.3   1000                     
1967-12-10 23   27.5   157.6   1000                     
1967-12-11 02   27.5   157.8    998                     
1967-12-11 05   27.4   158.1   1000                     
1967-12-11 08   27.3   158.5   1000                     
1967-12-11 11   26.7   158.8   1000                     
1967-12-11 14   26.2   158.9   1002                     
1967-12-11 17   25.4   158.8   1001                     
1967-12-11 20   24.4   158.3   1003                     
1967-12-11 23   23.4   157.6   1003                     
1967-12-12 02   22.7   156.8   1003                     
1967-12-12 05   21.9   156.4   1003                     
Winds are 10-min average.

Tropical cyclone tracks developed by Michael Bath using data from the Bureau of Meteorology and Google Maps.


[Australian Severe Weather index] [Copyright Notice] [Email Contacts] [Search This Site] [Privacy Policy]
Document: tropical_cyclone_196768_03.htm Updated: 30 May 2013